ENSB/LYR METAR and TAF weather

Enter ICAO airport designator
Station Type Date Time Source
ENSB METAR 2021/02/25 01:50 UTC NOAA

ENSB 250150Z 16011KT 9999 -SN SCT015 BKN025 01/M02 Q0993 RMK WIND 1400FT 14011KT


Station Type Date Time Source
ENSB Decoded METAR 2021/02/25 01:50 UTC NOAA

Svalbard Lufthavn, Norway (ENSB) 78-15N 015-28E 29M
Feb 24, 2021 - 08:50 PM EST / 2021.02.25 0150 UTC
Wind: from the SSE (160 degrees) at 13 MPH (11 KT):0
Visibility: greater than 7 mile(s):0
Sky conditions: mostly cloudy
Weather: light snow
Temperature: 33 F (1 C)
Windchill: 23 F (-5 C):1
Dew Point: 28 F (-2 C)
Relative Humidity: 80%
Pressure (altimeter): 29.32 in. Hg (0993 hPa)
ob: ENSB 250150Z 16011KT 9999 -SN SCT015 BKN025 01/M02 Q0993 RMK WIND 1400FT 14011KT
cycle: 2

Station Type Date Time Source
ENSB TAF 2021/02/24 18:57 UTC NOAA

TAF ENSB 241700Z 2418/2518 12008KT 9999 -SN FEW020 BKN040
TEMPO 2500/2512 12018KT

Example: see airport list